Time;durP1;ratioP1;P1;durP2;ratioP2;P2;SDS_P1;SDS_P2;PMS_P1;PMS_P2;Temp;Humidity;BMP_temperature;BMP_pressure;BME280_temperature;BME280_humidity;BME280_pressure;Samples;Min_cycle;Max_cycle;Signal;HPM_P1;HPM_P2
2022/03/05 00:00:32;;;;;;;2.53;1.27;;;1.40;71.90;;;;;;5077458;28;20389;-73
2022/03/05 00:02:59;;;;;;;3.15;1.15;;;1.40;72.00;;;;;;5112321;28;20047;-73
2022/03/05 00:05:26;;;;;;;3.78;1.60;;;1.40;72.70;;;;;;5077192;28;20047;-72
2022/03/05 00:07:52;;;;;;;3.10;1.25;;;1.30;72.10;;;;;;5077457;28;20043;-74
2022/03/05 00:10:19;;;;;;;3.53;1.50;;;1.40;72.20;;;;;;5077302;28;20173;-71
2022/03/05 00:12:45;;;;;;;2.83;1.25;;;1.40;72.30;;;;;;5112135;28;20409;-71
2022/03/05 00:15:11;;;;;;;2.65;1.17;;;1.20;72.20;;;;;;5094604;28;20044;-71
2022/03/05 00:17:37;;;;;;;2.65;1.30;;;1.20;72.30;;;;;;5077542;28;20131;-72
2022/03/05 00:20:04;;;;;;;3.42;1.40;;;1.20;72.40;;;;;;5093848;28;20491;-73
2022/03/05 00:22:32;;;;;;;2.85;1.15;;;1.10;72.50;;;;;;5077513;28;20047;-73
2022/03/05 00:24:58;;;;;;;2.60;1.30;;;1.10;72.50;;;;;;5114557;28;20040;-73
2022/03/05 00:27:23;;;;;;;1.95;1.00;;;1.10;72.60;;;;;;5077462;28;20379;-74
2022/03/05 00:29:50;;;;;;;2.25;1.30;;;1.10;72.60;;;;;;5112286;28;20070;-74
2022/03/05 00:32:15;;;;;;;4.05;1.48;;;1.10;72.70;;;;;;5077165;28;20047;-73
2022/03/05 00:34:41;;;;;;;3.05;1.25;;;1.00;72.70;;;;;;5060273;28;20039;-72
2022/03/05 00:37:08;;;;;;;3.95;1.20;;;1.00;72.80;;;;;;5076844;28;20032;-73
2022/03/05 00:39:34;;;;;;;3.90;1.73;;;1.00;72.90;;;;;;5060225;28;20471;-73
2022/03/05 00:42:00;;;;;;;2.83;1.27;;;0.90;72.90;;;;;;5094504;28;20043;-74
2022/03/05 00:44:26;;;;;;;4.00;1.65;;;0.90;72.90;;;;;;5080359;28;20404;-74
2022/03/05 00:46:52;;;;;;;2.25;1.05;;;0.80;72.90;;;;;;5063637;28;20039;-74
2022/03/05 00:49:17;;;;;;;2.25;1.10;;;0.80;73.00;;;;;;5081527;28;20063;-74
2022/03/05 00:51:43;;;;;;;0.95;0.77;;;0.80;73.10;;;;;;5080347;28;20042;-73
2022/03/05 00:54:09;;;;;;;1.90;1.00;;;0.80;73.20;;;;;;5080283;28;20507;-75
2022/03/05 00:56:35;;;;;;;3.28;1.20;;;0.70;73.20;;;;;;5080771;28;20472;-72
2022/03/05 00:59:01;;;;;;;3.35;1.23;;;0.70;73.30;;;;;;5116082;28;20118;-73
2022/03/05 01:01:27;;;;;;;2.15;0.80;;;0.70;73.30;;;;;;5080131;28;20135;-73
2022/03/05 01:03:53;;;;;;;2.38;1.13;;;0.60;73.40;;;;;;5063461;28;20043;-73
2022/03/05 01:06:18;;;;;;;1.73;0.80;;;0.70;73.50;;;;;;5080288;28;20039;-74
2022/03/05 01:08:44;;;;;;;2.10;0.88;;;0.60;73.50;;;;;;5079982;28;20440;-75
2022/03/05 01:11:15;;;;;;;1.63;0.80;;;0.50;73.50;;;;;;5115465;28;20473;-73
2022/03/05 01:13:41;;;;;;;1.13;0.65;;;0.50;73.60;;;;;;5098022;28;20457;-72
2022/03/05 01:16:07;;;;;;;2.38;1.00;;;0.50;73.70;;;;;;5114961;28;20040;-71
2022/03/05 01:18:33;;;;;;;1.40;0.80;;;0.50;73.70;;;;;;5079768;28;20118;-71
2022/03/05 01:20:58;;;;;;;2.60;1.27;;;0.50;73.80;;;;;;5097258;28;20051;-73
2022/03/05 01:23:24;;;;;;;2.83;1.20;;;0.40;73.80;;;;;;5079577;28;20047;-73
2022/03/05 01:25:50;;;;;;;1.45;0.63;;;0.40;73.90;;;;;;5114833;28;20126;-72
2022/03/05 01:28:16;;;;;;;1.88;0.90;;;0.40;73.90;;;;;;5115156;28;20044;-72
2022/03/05 01:30:41;;;;;;;1.77;0.85;;;0.30;73.90;;;;;;5079509;28;20081;-72
2022/03/05 01:33:08;;;;;;;1.85;0.90;;;0.40;74.00;;;;;;5114993;28;20048;-73
2022/03/05 01:35:34;;;;;;;0.80;0.63;;;0.30;74.00;;;;;;5096339;28;20114;-73
2022/03/05 01:38:00;;;;;;;1.52;0.80;;;0.30;74.00;;;;;;5114596;28;20043;-74
2022/03/05 01:40:25;;;;;;;1.85;0.88;;;0.30;74.10;;;;;;5115103;28;20115;-72
2022/03/05 01:42:51;;;;;;;1.85;0.88;;;0.30;74.10;;;;;;5114588;28;20031;-72
2022/03/05 01:45:17;;;;;;;1.73;0.85;;;0.30;74.10;;;;;;5114735;28;20050;-73
2022/03/05 01:47:45;;;;;;;2.13;0.80;;;0.20;74.10;;;;;;5096290;28;20124;-72
2022/03/05 01:50:12;;;;;;;1.75;0.70;;;0.20;74.10;;;;;;5114782;28;20040;-73
2022/03/05 01:52:38;;;;;;;1.67;0.88;;;0.30;74.10;;;;;;5096064;28;20048;-74
2022/03/05 01:55:04;;;;;;;2.90;1.25;;;0.20;74.10;;;;;;5114214;28;20032;-74
2022/03/05 01:57:30;;;;;;;2.40;1.08;;;0.20;74.10;;;;;;5096142;28;20039;-72
2022/03/05 01:59:56;;;;;;;2.08;1.08;;;0.20;74.20;;;;;;5062827;28;20032;-74
2022/03/05 02:02:22;;;;;;;1.95;0.70;;;0.10;74.20;;;;;;5062194;28;20130;-73
2022/03/05 02:04:48;;;;;;;1.45;0.88;;;0.10;74.30;;;;;;5062466;28;20028;-73
2022/03/05 02:07:14;;;;;;;2.13;0.70;;;0.00;74.30;;;;;;5095851;28;20067;-73
2022/03/05 02:09:40;;;;;;;2.35;1.10;;;0.10;74.40;;;;;;5095780;28;20114;-74
2022/03/05 02:12:06;;;;;;;1.60;0.85;;;0.00;74.40;;;;;;5095722;28;20131;-74
2022/03/05 02:14:31;;;;;;;1.45;0.70;;;0.10;74.50;;;;;;5078714;28;20089;-74
2022/03/05 02:16:59;;;;;;;1.15;0.77;;;0.10;74.50;;;;;;5078797;28;20504;-74
2022/03/05 02:19:24;;;;;;;1.10;0.68;;;0.00;74.40;;;;;;5062376;28;20080;-72
2022/03/05 02:21:50;;;;;;;2.22;1.02;;;0.00;74.50;;;;;;5078914;28;20054;-72
2022/03/05 02:24:31;;;;;;;1.92;0.90;;;0.00;74.50;;;;;;5114225;28;20468;-72
2022/03/05 02:26:59;;;;;;;3.42;1.40;;;-0.10;74.50;;;;;;5098499;28;20051;-72
2022/03/05 02:29:25;;;;;;;2.63;1.02;;;-0.10;74.50;;;;;;5095569;28;20539;-72
2022/03/05 02:31:53;;;;;;;2.15;0.98;;;-0.10;74.50;;;;;;5061969;28;20135;-72
2022/03/05 02:34:20;;;;;;;3.47;1.52;;;0.00;74.60;;;;;;5078922;28;20040;-72
2022/03/05 02:36:46;;;;;;;2.55;1.05;;;-0.10;74.60;;;;;;5113982;28;20389;-72
2022/03/05 02:39:12;;;;;;;1.52;0.90;;;-0.10;74.60;;;;;;5095835;28;20126;-72
2022/03/05 02:41:37;;;;;;;2.95;1.10;;;-0.10;74.70;;;;;;5095799;28;20512;-72
2022/03/05 02:44:03;;;;;;;1.98;1.10;;;-0.10;74.70;;;;;;5095633;28;20374;-72
2022/03/05 02:46:29;;;;;;;1.65;0.80;;;-0.20;74.70;;;;;;5078277;28;20051;-72
2022/03/05 02:48:56;;;;;;;1.80;0.77;;;-0.20;74.80;;;;;;5095225;28;20119;-72
2022/03/05 02:51:22;;;;;;;1.95;1.20;;;-0.20;74.80;;;;;;5095082;28;20039;-72
2022/03/05 02:53:48;;;;;;;1.98;0.70;;;-0.20;74.80;;;;;;5094664;28;20043;-72
2022/03/05 02:56:14;;;;;;;1.27;0.90;;;-0.20;74.90;;;;;;5113181;28;20122;-72
2022/03/05 02:58:40;;;;;;;1.80;0.90;;;-0.20;74.90;;;;;;5113343;28;20064;-72
2022/03/05 03:01:06;;;;;;;1.98;1.02;;;-0.20;74.90;;;;;;5078079;28;20067;-72
2022/03/05 03:03:32;;;;;;;3.05;1.20;;;-0.20;75.00;;;;;;5094904;28;20112;-73
2022/03/05 03:05:57;;;;;;;2.30;0.88;;;-0.20;75.00;;;;;;5094509;28;20503;-72
2022/03/05 03:08:23;;;;;;;2.38;0.98;;;-0.30;75.00;;;;;;5113155;28;20122;-72
2022/03/05 03:10:49;;;;;;;2.15;0.88;;;-0.30;75.10;;;;;;5095393;28;20505;-73
2022/03/05 03:13:15;;;;;;;2.75;1.17;;;-0.30;75.10;;;;;;5112840;28;20046;-72
2022/03/05 03:15:40;;;;;;;2.47;0.90;;;-0.30;75.10;;;;;;5095003;28;20032;-72
2022/03/05 03:18:07;;;;;;;2.58;0.90;;;-0.30;75.10;;;;;;5113420;28;20381;-72
2022/03/05 03:20:33;;;;;;;3.08;1.10;;;-0.30;75.10;;;;;;5112815;28;20051;-72
2022/03/05 03:22:59;;;;;;;1.70;0.82;;;-0.40;75.10;;;;;;5094406;28;20044;-72
2022/03/05 03:25:24;;;;;;;2.63;1.00;;;-0.40;75.10;;;;;;5077774;28;20039;-72
2022/03/05 03:27:51;;;;;;;1.88;0.80;;;-0.30;75.20;;;;;;5077686;28;20500;-72
2022/03/05 03:30:18;;;;;;;2.45;0.95;;;-0.40;75.20;;;;;;5113183;28;20533;-72
2022/03/05 03:32:45;;;;;;;2.22;0.98;;;-0.40;75.20;;;;;;5112744;28;20044;-71
2022/03/05 03:35:13;;;;;;;2.70;0.90;;;-0.40;75.30;;;;;;5111272;28;20043;-72
2022/03/05 03:37:40;;;;;;;2.53;1.13;;;-0.40;75.30;;;;;;5113345;28;20123;-71
2022/03/05 03:40:09;;;;;;;2.75;1.02;;;-0.40;75.30;;;;;;5094581;28;20039;-72
2022/03/05 03:42:35;;;;;;;1.58;0.70;;;-0.40;75.40;;;;;;5112683;28;20050;-72
2022/03/05 03:45:01;;;;;;;2.63;0.98;;;-0.40;75.40;;;;;;5112683;28;20051;-71
2022/03/05 03:47:26;;;;;;;1.77;1.00;;;-0.30;75.40;;;;;;5094315;28;20039;-72
2022/03/05 03:49:52;;;;;;;2.03;0.90;;;-0.40;75.40;;;;;;5113077;28;20040;-71
2022/03/05 03:52:18;;;;;;;3.90;1.30;;;-0.40;75.40;;;;;;5112324;28;20054;-72
2022/03/05 03:54:46;;;;;;;4.18;1.52;;;-0.40;75.40;;;;;;5094528;28;20388;-71
2022/03/05 03:57:12;;;;;;;2.78;1.13;;;-0.40;75.40;;;;;;5110610;28;20080;-71
2022/03/05 03:59:38;;;;;;;2.67;1.20;;;-0.40;75.40;;;;;;5077307;28;20142;-73
2022/03/05 04:02:04;;;;;;;2.63;1.20;;;-0.40;75.40;;;;;;5112302;28;20047;-72
2022/03/05 04:04:30;;;;;;;2.78;1.20;;;-0.40;75.40;;;;;;5094359;28;20198;-72
2022/03/05 04:09:42;;;;;;;4.50;1.42;;;-0.40;75.40;;;;;;5096819;28;20420;-72
2022/03/05 04:12:08;;;;;;;3.38;1.20;;;-0.40;76.10;;;;;;5112613;28;20047;-72
2022/03/05 04:14:35;;;;;;;3.38;1.27;;;-0.40;75.50;;;;;;5112664;28;20110;-72
2022/03/05 04:17:01;;;;;;;2.97;1.33;;;-0.40;75.50;;;;;;5094762;28;20039;-71
2022/03/05 04:19:27;;;;;;;2.70;1.30;;;-0.40;75.50;;;;;;5116123;28;20039;-72
2022/03/05 04:21:53;;;;;;;2.85;1.10;;;-0.40;75.50;;;;;;5097651;28;20043;-71
2022/03/05 04:24:19;;;;;;;2.00;1.08;;;-0.40;75.60;;;;;;5097551;28;20417;-71
2022/03/05 04:26:45;;;;;;;2.55;0.93;;;-0.50;75.50;;;;;;5115919;28;20070;-71
2022/03/05 04:29:10;;;;;;;2.38;1.10;;;-0.50;75.60;;;;;;5115760;28;20100;-71
2022/03/05 04:31:36;;;;;;;2.25;1.10;;;-0.50;75.60;;;;;;5115686;28;20397;-72
2022/03/05 04:34:02;;;;;;;3.40;1.42;;;-0.50;75.70;;;;;;5116022;28;20439;-71
2022/03/05 04:36:27;;;;;;;3.20;1.30;;;-0.60;75.70;;;;;;5115602;28;20035;-71
2022/03/05 04:38:53;;;;;;;3.92;1.60;;;-0.50;75.80;;;;;;5115395;28;20028;-72
2022/03/05 04:41:19;;;;;;;3.45;1.05;;;-0.60;75.70;;;;;;5115418;28;20398;-71
2022/03/05 04:43:47;;;;;;;2.67;1.17;;;-0.50;75.80;;;;;;5115398;28;20092;-71
2022/03/05 04:46:13;;;;;;;5.38;1.50;;;-0.60;75.80;;;;;;5115925;28;20039;-71
2022/03/05 04:48:38;;;;;;;3.22;1.27;;;-0.50;75.90;;;;;;5097217;28;20400;-71
2022/03/05 04:51:04;;;;;;;2.47;1.25;;;-0.50;75.90;;;;;;5115466;28;20035;-71
2022/03/05 04:53:30;;;;;;;2.38;1.08;;;-0.50;75.90;;;;;;5115174;28;20544;-71
2022/03/05 04:55:56;;;;;;;3.38;1.33;;;-0.60;75.90;;;;;;5097602;28;20046;-71
2022/03/05 04:58:22;;;;;;;2.92;1.15;;;-0.60;75.90;;;;;;5115118;28;20096;-71
2022/03/05 05:00:47;;;;;;;3.83;1.30;;;-0.60;75.90;;;;;;5115621;28;20043;-71
2022/03/05 05:03:14;;;;;;;3.92;1.25;;;-0.60;75.90;;;;;;5115374;28;20051;-71
2022/03/05 05:05:40;;;;;;;3.47;1.27;;;-0.60;75.90;;;;;;5097240;28;20043;-71
2022/03/05 05:08:06;;;;;;;2.40;1.05;;;-0.50;76.00;;;;;;5096904;28;20122;-71
2022/03/05 05:10:31;;;;;;;2.20;1.00;;;-0.60;76.00;;;;;;5115220;28;20043;-72
2022/03/05 05:12:57;;;;;;;3.40;1.48;;;-0.60;76.00;;;;;;5115692;28;20389;-71
2022/03/05 05:15:23;;;;;;;2.47;1.13;;;-0.60;76.40;;;;;;5115181;28;20035;-71
2022/03/05 05:17:49;;;;;;;3.42;1.25;;;-0.60;76.10;;;;;;5115533;28;20027;-71
2022/03/05 05:20:15;;;;;;;2.53;1.00;;;-0.60;76.10;;;;;;5115475;28;20046;-71
2022/03/05 05:22:40;;;;;;;3.53;1.15;;;-0.60;76.10;;;;;;5115637;28;20036;-72
2022/03/05 05:25:07;;;;;;;2.97;1.38;;;-0.60;76.20;;;;;;5115055;28;20039;-71
2022/03/05 05:27:38;;;;;;;2.83;1.25;;;-0.60;76.20;;;;;;5114667;28;20508;-71
2022/03/05 05:30:05;;;;;;;2.07;0.87;;;-0.70;76.20;;;;;;5115235;28;20477;-71
2022/03/05 05:32:31;;;;;;;2.35;0.90;;;-0.60;76.30;;;;;;5096679;28;20293;-71
2022/03/05 05:34:56;;;;;;;2.72;1.17;;;-0.70;76.30;;;;;;5079775;28;20126;-71
2022/03/05 05:37:22;;;;;;;2.25;1.02;;;-0.70;76.30;;;;;;5114764;28;20396;-71
2022/03/05 05:39:48;;;;;;;3.17;1.15;;;-0.70;76.40;;;;;;5115199;28;20845;-71
2022/03/05 05:42:14;;;;;;;3.08;1.40;;;-0.80;76.30;;;;;;5114569;28;20043;-71
2022/03/05 05:44:40;;;;;;;3.22;1.20;;;-0.70;76.40;;;;;;5114676;28;20036;-72
2022/03/05 05:47:06;;;;;;;2.40;1.13;;;-0.70;76.40;;;;;;5096767;28;20047;-71
2022/03/05 05:49:32;;;;;;;3.22;1.02;;;-0.70;76.40;;;;;;5114671;28;20044;-71
2022/03/05 05:51:58;;;;;;;2.78;1.10;;;-0.70;76.50;;;;;;5114413;28;20045;-71
2022/03/05 05:54:24;;;;;;;3.58;1.25;;;-0.70;76.50;;;;;;5114702;28;20032;-72
2022/03/05 05:56:50;;;;;;;2.60;1.17;;;-0.70;76.50;;;;;;5114488;28;20401;-71
2022/03/05 05:59:16;;;;;;;2.28;1.00;;;-0.80;76.40;;;;;;5079619;28;20035;-72
2022/03/05 06:01:42;;;;;;;2.15;0.95;;;-0.70;76.50;;;;;;5114910;28;20039;-72
2022/03/05 06:04:08;;;;;;;1.30;0.63;;;-0.80;76.60;;;;;;5096608;28;20096;-71
2022/03/05 06:06:33;;;;;;;3.25;1.00;;;-0.70;76.60;;;;;;5096273;28;20096;-71
2022/03/05 06:08:59;;;;;;;1.88;1.08;;;-0.80;76.60;;;;;;5079828;28;20032;-72
2022/03/05 06:11:25;;;;;;;1.92;1.00;;;-0.80;76.70;;;;;;5114675;28;20043;-72
2022/03/05 06:13:51;;;;;;;2.78;0.85;;;-0.80;76.70;;;;;;5114952;28;20044;-71
2022/03/05 06:16:17;;;;;;;1.92;0.80;;;-0.80;76.70;;;;;;5114938;28;20031;-71
2022/03/05 06:18:43;;;;;;;2.15;0.73;;;-0.80;76.70;;;;;;5114483;28;20057;-71
2022/03/05 06:21:09;;;;;;;3.40;0.98;;;-0.80;76.70;;;;;;5114087;28;20047;-72
2022/03/05 06:23:36;;;;;;;2.22;0.88;;;-0.80;76.80;;;;;;5078844;28;20067;-72
2022/03/05 06:26:02;;;;;;;2.28;0.93;;;-0.80;76.80;;;;;;5114149;28;20067;-72
2022/03/05 06:28:28;;;;;;;2.55;1.17;;;-0.80;77.40;;;;;;5078756;28;20619;-71
2022/03/05 06:30:54;;;;;;;2.03;0.68;;;-0.80;76.80;;;;;;5113973;28;20040;-72
2022/03/05 06:33:20;;;;;;;1.30;0.63;;;-0.80;76.80;;;;;;5095730;28;20126;-71
2022/03/05 06:35:45;;;;;;;2.55;1.10;;;-0.90;76.80;;;;;;5095722;28;20115;-72
2022/03/05 06:38:11;;;;;;;1.83;0.82;;;-0.80;76.90;;;;;;5061934;28;20031;-71
2022/03/05 06:40:37;;;;;;;2.15;0.77;;;-0.90;76.90;;;;;;5094685;28;20037;-71
2022/03/05 06:43:03;;;;;;;3.00;0.90;;;-0.90;76.80;;;;;;5095990;28;20043;-72
2022/03/05 06:45:29;;;;;;;2.95;0.90;;;-0.90;76.90;;;;;;5096034;28;20040;-72
2022/03/05 06:47:55;;;;;;;2.13;0.82;;;-0.90;76.80;;;;;;5078702;28;20043;-71
2022/03/05 06:50:21;;;;;;;2.78;0.90;;;-0.80;76.90;;;;;;5113695;28;20047;-72
2022/03/05 06:52:46;;;;;;;2.92;1.08;;;-0.80;76.90;;;;;;5113816;28;20073;-71
2022/03/05 06:55:14;;;;;;;2.33;0.85;;;-0.70;76.90;;;;;;5113887;28;20495;-71
2022/03/05 06:57:41;;;;;;;1.88;0.93;;;-0.80;76.80;;;;;;5078507;28;20397;-71
2022/03/05 07:00:08;;;;;;;2.60;1.00;;;-0.80;76.80;;;;;;5113658;28;20050;-71
2022/03/05 07:02:34;;;;;;;3.13;1.10;;;-0.80;76.80;;;;;;5113768;28;20043;-71
2022/03/05 07:05:00;;;;;;;2.28;0.70;;;-0.70;76.80;;;;;;5113482;28;20606;-71
2022/03/05 07:07:26;;;;;;;2.80;1.27;;;-0.70;76.70;;;;;;5095107;28;20050;-71
2022/03/05 07:09:52;;;;;;;1.73;0.70;;;-0.60;76.70;;;;;;5113771;28;20400;-72
2022/03/05 07:12:17;;;;;;;2.67;1.20;;;-0.70;76.50;;;;;;5095025;28;20100;-72
2022/03/05 07:14:48;;;;;;;3.63;1.20;;;-0.60;76.50;;;;;;5113160;28;20044;-71
2022/03/05 07:17:15;;;;;;;1.88;0.90;;;-0.60;76.50;;;;;;5095717;28;20126;-71
2022/03/05 07:19:41;;;;;;;2.80;1.25;;;-0.50;76.50;;;;;;5113571;28;20040;-71
2022/03/05 07:22:07;;;;;;;2.63;1.20;;;-0.40;76.50;;;;;;5113162;28;20512;-71
2022/03/05 07:24:34;;;;;;;1.75;0.80;;;-0.40;77.00;;;;;;5094869;28;20042;-71
2022/03/05 07:26:59;;;;;;;2.22;1.05;;;-0.40;76.30;;;;;;5113094;28;20147;-71
2022/03/05 07:29:25;;;;;;;4.13;1.17;;;-0.40;76.10;;;;;;5112961;28;20063;-71
2022/03/05 07:31:51;;;;;;;3.00;1.02;;;-0.20;76.10;;;;;;5113112;28;20472;-71
2022/03/05 07:34:17;;;;;;;3.58;1.20;;;-0.10;76.10;;;;;;5094764;28;20043;-71
2022/03/05 07:36:43;;;;;;;1.95;0.93;;;-0.10;76.00;;;;;;5113516;28;20092;-71
2022/03/05 07:39:08;;;;;;;2.30;0.90;;;-0.10;75.80;;;;;;5113119;28;20031;-71
2022/03/05 07:41:36;;;;;;;2.55;1.05;;;-0.10;75.80;;;;;;5095343;28;20166;-71
2022/03/05 07:44:04;;;;;;;3.45;1.30;;;0.00;75.70;;;;;;5112828;28;20441;-72
2022/03/05 07:46:29;;;;;;;2.60;1.08;;;0.20;75.70;;;;;;5113202;28;20408;-71
2022/03/05 07:48:55;;;;;;;3.25;1.30;;;0.20;75.70;;;;;;5094588;28;20130;-72
2022/03/05 07:51:21;;;;;;;4.10;1.38;;;0.30;75.60;;;;;;5112597;28;20048;-72
2022/03/05 07:53:47;;;;;;;4.65;1.25;;;0.30;75.50;;;;;;5094619;28;20094;-71
2022/03/05 07:56:12;;;;;;;3.22;1.25;;;0.40;75.50;;;;;;5113153;28;20042;-71
2022/03/05 07:58:38;;;;;;;2.10;1.08;;;0.50;75.40;;;;;;5094849;28;20405;-72
2022/03/05 08:01:04;;;;;;;4.18;1.42;;;0.60;75.30;;;;;;5112470;28;20366;-72
2022/03/05 08:03:30;;;;;;;3.08;1.42;;;0.60;75.10;;;;;;5094468;28;20040;-71
2022/03/05 08:05:56;;;;;;;2.53;1.15;;;0.70;75.00;;;;;;5112429;28;20039;-71
2022/03/05 08:08:22;;;;;;;4.07;1.73;;;0.90;75.00;;;;;;5112319;28;20043;-72
2022/03/05 08:10:47;;;;;;;4.05;1.77;;;1.00;74.90;;;;;;5112461;28;20397;-72
2022/03/05 08:13:13;;;;;;;3.90;1.75;;;1.00;74.70;;;;;;5094171;28;20036;-71
2022/03/05 08:15:39;;;;;;;3.90;1.60;;;1.20;74.70;;;;;;5112865;28;20035;-71
2022/03/05 08:18:05;;;;;;;2.53;1.27;;;1.20;74.60;;;;;;5094204;28;20504;-71
2022/03/05 08:20:32;;;;;;;2.92;1.52;;;1.30;74.50;;;;;;5112702;28;20099;-71
2022/03/05 08:22:59;;;;;;;3.88;1.40;;;1.50;74.50;;;;;;5094388;28;20108;-71
2022/03/05 08:25:26;;;;;;;3.40;1.40;;;1.60;74.30;;;;;;5094232;28;20046;-71
2022/03/05 08:27:52;;;;;;;3.50;1.40;;;1.70;74.20;;;;;;5112372;28;20054;-71
2022/03/05 08:30:18;;;;;;;4.80;1.92;;;1.80;74.10;;;;;;5077213;28;20040;-72
2022/03/05 08:32:44;;;;;;;3.67;1.38;;;1.90;74.10;;;;;;5112666;28;20085;-71
2022/03/05 08:35:12;;;;;;;3.28;1.40;;;2.10;74.00;;;;;;5112220;28;20081;-72
2022/03/05 08:37:38;;;;;;;4.68;2.00;;;2.10;73.90;;;;;;5112165;28;20051;-72
2022/03/05 08:40:06;;;;;;;4.03;1.65;;;2.10;73.90;;;;;;5112542;28;20138;-72
2022/03/05 08:42:32;;;;;;;4.53;1.80;;;2.20;73.90;;;;;;5112636;28;20076;-71
2022/03/05 08:44:58;;;;;;;3.90;1.30;;;2.20;73.90;;;;;;5113009;28;20035;-71
2022/03/05 08:47:24;;;;;;;3.25;1.48;;;2.30;73.90;;;;;;5094732;28;20103;-71
2022/03/05 08:49:50;;;;;;;4.18;1.73;;;2.30;73.90;;;;;;5112739;28;20035;-71
2022/03/05 08:52:16;;;;;;;5.70;1.92;;;2.40;73.90;;;;;;5112065;28;20509;-71
2022/03/05 08:54:42;;;;;;;3.33;1.40;;;2.50;73.90;;;;;;5077223;28;20040;-71
2022/03/05 08:57:09;;;;;;;3.63;1.40;;;2.40;73.80;;;;;;5060617;28;20188;-71
2022/03/05 08:59:35;;;;;;;3.88;1.70;;;2.50;73.90;;;;;;5093941;28;20184;-72
2022/03/05 09:02:01;;;;;;;3.03;1.58;;;2.60;73.80;;;;;;5077231;28;20161;-71
2022/03/05 09:04:27;;;;;;;4.28;1.85;;;2.70;73.80;;;;;;5063203;28;20085;-71
2022/03/05 09:06:53;;;;;;;5.25;1.92;;;2.80;73.80;;;;;;5097274;28;20051;-71
2022/03/05 09:09:19;;;;;;;6.15;2.35;;;2.70;73.70;;;;;;5097433;28;20032;-71
2022/03/05 09:11:45;;;;;;;4.65;1.65;;;2.70;73.70;;;;;;5115277;28;20550;-72
2022/03/05 09:14:11;;;;;;;3.40;1.60;;;2.90;73.80;;;;;;5097430;28;20390;-72
2022/03/05 09:16:38;;;;;;;5.25;2.05;;;2.90;73.70;;;;;;5097191;28;20035;-72
2022/03/05 09:19:05;;;;;;;5.38;2.05;;;3.00;73.70;;;;;;5115090;28;20534;-72
2022/03/05 09:21:32;;;;;;;5.30;2.25;;;3.00;73.60;;;;;;5115043;28;20036;-74
2022/03/05 09:23:59;;;;;;;4.20;1.80;;;3.10;73.50;;;;;;5115297;28;20130;-74
2022/03/05 09:26:25;;;;;;;4.65;1.85;;;3.20;73.50;;;;;;5079847;28;20032;-74
2022/03/05 09:28:50;;;;;;;4.85;2.15;;;3.20;73.40;;;;;;5080321;28;20047;-74
2022/03/05 09:31:17;;;;;;;5.60;2.20;;;3.30;73.40;;;;;;5063218;28;20130;-71
2022/03/05 09:33:43;;;;;;;4.05;1.73;;;3.40;73.40;;;;;;5096631;28;20043;-72
2022/03/05 09:36:09;;;;;;;4.18;1.90;;;3.40;73.30;;;;;;5079919;28;20508;-71
2022/03/05 09:38:35;;;;;;;5.53;1.98;;;3.40;73.20;;;;;;5096798;28;20077;-73
2022/03/05 09:41:04;;;;;;;5.95;2.13;;;3.50;73.20;;;;;;5096640;28;20047;-72
2022/03/05 09:43:30;;;;;;;4.70;2.08;;;3.50;73.20;;;;;;5096441;28;20043;-73
2022/03/05 09:45:57;;;;;;;6.03;2.35;;;3.60;73.10;;;;;;5096547;28;20043;-72
2022/03/05 09:48:25;;;;;;;4.47;2.20;;;3.70;73.00;;;;;;5114636;28;20047;-72
2022/03/05 09:50:51;;;;;;;5.45;2.60;;;3.70;72.80;;;;;;5079746;28;20058;-72
2022/03/05 09:53:18;;;;;;;4.90;2.20;;;3.80;72.90;;;;;;5096518;28;20406;-72
2022/03/05 09:55:45;;;;;;;5.30;2.10;;;3.80;72.90;;;;;;5097169;28;20031;-72
2022/03/05 09:58:11;;;;;;;5.22;2.30;;;3.90;72.80;;;;;;5063953;28;20040;-72
2022/03/05 10:00:39;;;;;;;5.93;2.38;;;3.90;72.70;;;;;;5098182;28;20065;-72
2022/03/05 10:03:07;;;;;;;4.57;2.38;;;4.00;72.80;;;;;;5115924;28;20067;-72
2022/03/05 10:05:34;;;;;;;5.68;2.58;;;4.10;72.70;;;;;;5097112;28;20048;-72
2022/03/05 10:08:08;;;;;;;4.43;2.00;;;4.10;72.60;;;;;;5096863;28;20093;-72
2022/03/05 10:10:51;;;;;;;4.22;1.90;;;4.20;72.60;;;;;;5113553;28;20051;-73
2022/03/05 10:13:23;;;;;;;6.10;2.35;;;4.20;72.50;;;;;;5113998;28;20126;-72
2022/03/05 10:15:50;;;;;;;5.22;2.42;;;4.30;72.50;;;;;;5095312;28;20035;-73
2022/03/05 10:18:16;;;;;;;5.07;2.05;;;4.40;72.40;;;;;;5062657;28;20473;-73
2022/03/05 10:20:45;;;;;;;6.07;2.50;;;4.40;72.30;;;;;;5062479;28;20071;-72
2022/03/05 10:23:12;;;;;;;4.80;2.15;;;4.50;72.30;;;;;;5078884;28;20039;-74
2022/03/05 10:25:49;;;;;;;5.05;1.92;;;4.40;72.20;;;;;;5060392;28;20082;-73
2022/03/05 10:28:17;;;;;;;5.07;2.30;;;4.60;72.20;;;;;;5081066;28;20044;-73
2022/03/05 10:30:46;;;;;;;6.60;2.28;;;4.60;72.00;;;;;;5079547;28;20048;-72
2022/03/05 10:33:30;;;;;;;5.78;2.30;;;4.70;72.00;;;;;;5079343;28;20061;-71
2022/03/05 10:35:58;;;;;;;4.72;2.22;;;4.70;72.00;;;;;;5114013;28;20031;-72
2022/03/05 10:38:41;;;;;;;3.75;1.90;;;4.80;71.90;;;;;;5079140;28;20024;-73
2022/03/05 10:41:06;;;;;;;5.80;2.47;;;4.80;71.80;;;;;;5064432;28;20055;-74
2022/03/05 10:43:32;;;;;;;6.63;2.60;;;5.00;71.70;;;;;;5113952;28;20477;-74
2022/03/05 10:45:58;;;;;;;4.70;2.38;;;4.90;71.60;;;;;;5095961;28;20035;-73
2022/03/05 10:48:28;;;;;;;5.63;2.15;;;5.10;71.60;;;;;;5113748;28;20442;-72
2022/03/05 10:50:57;;;;;;;5.32;2.30;;;5.10;71.50;;;;;;5095969;28;20128;-72
2022/03/05 10:53:36;;;;;;;5.25;2.60;;;5.10;71.50;;;;;;5113561;28;20048;-73
2022/03/05 10:56:35;;;;;;;6.88;2.83;;;5.30;71.50;;;;;;5114470;28;20122;-73
2022/03/05 10:59:10;;;;;;;6.32;2.88;;;5.30;71.30;;;;;;5096333;28;20036;-74
2022/03/05 11:01:39;;;;;;;7.28;3.00;;;5.40;71.20;;;;;;5112790;28;20042;-73
2022/03/05 11:04:06;;;;;;;5.70;2.65;;;5.40;71.20;;;;;;5095441;28;20047;-74
2022/03/05 11:06:37;;;;;;;4.97;2.45;;;5.50;71.10;;;;;;5113861;28;20056;-73
2022/03/05 11:09:04;;;;;;;6.10;2.38;;;5.60;71.00;;;;;;5095459;28;20040;-73
2022/03/05 11:11:31;;;;;;;5.68;2.40;;;5.60;70.90;;;;;;5113444;28;20048;-73
2022/03/05 11:13:57;;;;;;;5.20;2.40;;;5.70;70.80;;;;;;5115102;28;20040;-74
2022/03/05 11:16:25;;;;;;;5.68;2.47;;;5.90;70.80;;;;;;5113418;28;20063;-72
2022/03/05 11:18:51;;;;;;;4.35;2.10;;;6.00;70.70;;;;;;5113243;28;20393;-73
2022/03/05 11:21:17;;;;;;;5.10;2.30;;;6.00;70.50;;;;;;5061424;28;20032;-73
2022/03/05 11:23:44;;;;;;;7.57;2.58;;;6.10;70.50;;;;;;5113069;28;20438;-72
2022/03/05 11:26:11;;;;;;;6.40;2.03;;;6.10;70.50;;;;;;5094432;28;20071;-72
2022/03/05 11:28:44;;;;;;;5.97;2.55;;;6.20;70.40;;;;;;5094971;28;20035;-72
2022/03/05 11:31:30;;;;;;;5.28;2.35;;;6.30;70.30;;;;;;5094700;28;20036;-72
2022/03/05 11:34:09;;;;;;;5.20;2.40;;;6.30;70.30;;;;;;5093425;28;20043;-73
2022/03/05 11:36:36;;;;;;;4.50;2.10;;;6.40;70.10;;;;;;5079939;28;20042;-74
2022/03/05 11:39:27;;;;;;;7.97;2.70;;;6.40;70.10;;;;;;5113297;28;20036;-75
2022/03/05 11:41:57;;;;;;;4.68;2.35;;;6.40;70.10;;;;;;5094997;28;20118;-74
2022/03/05 11:44:28;;;;;;;4.47;2.00;;;6.60;70.10;;;;;;5094804;28;20226;-74
2022/03/05 11:47:25;;;;;;;4.63;2.13;;;6.60;69.80;;;;;;5078835;28;20075;-74
2022/03/05 11:50:07;;;;;;;5.35;2.08;;;6.70;69.60;;;;;;5112760;28;20400;-74
2022/03/05 11:53:02;;;;;;;4.43;2.20;;;6.70;69.60;;;;;;5094507;28;20500;-73
2022/03/05 11:55:27;;;;;;;6.25;2.58;;;6.80;69.60;;;;;;5112675;28;20512;-74
2022/03/05 11:58:16;;;;;;;4.40;1.85;;;6.90;69.60;;;;;;5094800;28;20028;-73
2022/03/05 12:00:44;;;;;;;4.85;2.33;;;7.00;69.40;;;;;;5064249;28;20485;-74
2022/03/05 12:03:20;;;;;;;6.30;2.78;;;7.00;69.40;;;;;;5095455;28;20051;-73
2022/03/05 12:05:54;;;;;;;4.90;2.47;;;7.10;69.20;;;;;;5111838;28;20135;-74
2022/03/05 12:08:40;;;;;;;5.68;2.38;;;7.20;69.00;;;;;;5094322;28;20039;-74
2022/03/05 12:11:12;;;;;;;5.32;2.30;;;7.40;69.00;;;;;;5097654;28;20100;-74
2022/03/05 12:13:43;;;;;;;5.35;2.33;;;7.50;68.70;;;;;;5112345;28;20489;-74
2022/03/05 12:16:16;;;;;;;5.57;2.38;;;7.50;68.60;;;;;;5060963;28;20050;-73
2022/03/05 12:18:42;;;;;;;6.82;2.88;;;7.50;68.60;;;;;;5112594;28;20039;-73
2022/03/05 12:21:08;;;;;;;6.40;2.45;;;7.60;68.70;;;;;;5112852;28;20043;-73
2022/03/05 12:23:34;;;;;;;5.03;2.33;;;7.80;68.50;;;;;;5112293;28;20160;-73
2022/03/05 12:26:04;;;;;;;4.68;2.05;;;7.80;68.30;;;;;;5094412;28;20063;-73
2022/03/05 12:28:41;;;;;;;3.92;2.08;;;8.00;68.20;;;;;;5094114;28;20043;-74
2022/03/05 12:31:18;;;;;;;4.03;1.98;;;8.10;67.90;;;;;;5094564;28;20051;-74
2022/03/05 12:33:51;;;;;;;4.43;2.05;;;8.20;67.70;;;;;;5096689;28;20047;-72
2022/03/05 12:36:17;;;;;;;4.38;1.95;;;8.20;67.70;;;;;;5095174;28;20039;-73
2022/03/05 12:38:52;;;;;;;4.07;1.80;;;8.40;67.70;;;;;;5096796;28;20112;-73
2022/03/05 12:41:18;;;;;;;4.03;1.95;;;8.50;67.60;;;;;;5114575;28;20050;-73
2022/03/05 12:43:44;;;;;;;4.72;2.20;;;8.60;67.30;;;;;;5098302;28;20540;-73
2022/03/05 12:46:10;;;;;;;5.53;2.42;;;8.70;67.10;;;;;;5098731;28;20377;-72
2022/03/05 12:48:36;;;;;;;4.60;1.88;;;8.70;67.10;;;;;;5082325;28;20066;-73
2022/03/05 12:51:02;;;;;;;4.60;2.30;;;8.80;66.90;;;;;;5116992;28;20067;-73
2022/03/05 12:53:30;;;;;;;5.20;2.30;;;8.90;66.90;;;;;;5064708;28;20584;-73
2022/03/05 12:55:58;;;;;;;4.47;2.30;;;8.90;66.90;;;;;;5115739;28;20045;-73